sensor_id;sensor_type;location;lat;lon;timestamp;pressure;altitude;pressure_sealevel;temperature;humidity
46682;BME280;34101;53.430;-2.224;2023-07-08T08:48:11;100823.77;;;27.07;43.55
46682;BME280;34101;53.430;-2.224;2023-07-08T08:50:47;100823.69;;;27.21;43.43
46682;BME280;34101;53.430;-2.224;2023-07-08T08:52:20;100826.47;;;27.35;43.51
46682;BME280;34101;53.430;-2.224;2023-07-08T08:53:20;100827.69;;;27.29;43.47
46682;BME280;34101;53.430;-2.224;2023-07-08T08:54:51;100824.25;;;27.46;43.16
46682;BME280;34101;53.430;-2.224;2023-07-08T08:55:54;100829.22;;;27.56;43.04
46682;BME280;34101;53.430;-2.224;2023-07-08T08:57:29;100836.14;;;27.46;43.30
46682;BME280;34101;53.430;-2.224;2023-07-08T08:58:30;100835.45;;;27.64;43.16
46682;BME280;34101;53.430;-2.224;2023-07-08T09:01:00;100840.39;;;27.84;41.50
46682;BME280;34101;53.430;-2.224;2023-07-08T09:03:49;100840.60;;;27.68;41.46
46682;BME280;34101;53.430;-2.224;2023-07-08T09:06:20;100844.22;;;27.60;41.11
46682;BME280;34101;53.430;-2.224;2023-07-08T09:08:49;100847.65;;;27.25;42.14
46682;BME280;34101;53.430;-2.224;2023-07-08T09:11:57;100850.31;;;27.49;41.00
46682;BME280;34101;53.430;-2.224;2023-07-08T09:14:28;100847.57;;;27.21;42.41
46682;BME280;34101;53.430;-2.224;2023-07-08T09:17:07;100850.89;;;27.20;41.64
46682;BME280;34101;53.430;-2.224;2023-07-08T09:19:40;100847.46;;;27.36;41.52
46682;BME280;34101;53.430;-2.224;2023-07-08T09:22:13;100850.31;;;27.26;41.45
46682;BME280;34101;53.430;-2.224;2023-07-08T09:24:44;100857.38;;;26.90;42.53
46682;BME280;34101;53.430;-2.224;2023-07-08T09:27:12;100850.38;;;26.44;43.69
46682;BME280;34101;53.430;-2.224;2023-07-08T09:29:39;100851.97;;;26.68;43.54
46682;BME280;34101;53.430;-2.224;2023-07-08T09:32:15;100855.66;;;26.69;43.37
46682;BME280;34101;53.430;-2.224;2023-07-08T09:34:46;100852.86;;;27.10;42.53
46682;BME280;34101;53.430;-2.224;2023-07-08T09:37:31;100852.25;;;27.75;41.45
46682;BME280;34101;53.430;-2.224;2023-07-08T09:40:00;100859.47;;;28.33;40.19
46682;BME280;34101;53.430;-2.224;2023-07-08T09:42:31;100860.26;;;28.93;39.27
46682;BME280;34101;53.430;-2.224;2023-07-08T09:45:00;100865.08;;;28.69;38.83
46682;BME280;34101;53.430;-2.224;2023-07-08T09:47:29;100867.48;;;27.77;41.25
46682;BME280;34101;53.430;-2.224;2023-07-08T09:50:00;100871.51;;;28.01;41.20
46682;BME280;34101;53.430;-2.224;2023-07-08T09:52:31;100888.07;;;27.90;41.45
46682;BME280;34101;53.430;-2.224;2023-07-08T09:54:58;100881.77;;;28.25;40.30
46682;BME280;34101;53.430;-2.224;2023-07-08T09:57:28;100893.43;;;28.16;40.92
46682;BME280;34101;53.430;-2.224;2023-07-08T09:59:59;100890.33;;;28.10;40.76
46682;BME280;34101;53.430;-2.224;2023-07-08T10:02:29;100900.34;;;28.26;40.81
46682;BME280;34101;53.430;-2.224;2023-07-08T10:04:59;100903.79;;;28.27;41.14
46682;BME280;34101;53.430;-2.224;2023-07-08T10:07:29;100916.82;;;28.14;41.08
46682;BME280;34101;53.430;-2.224;2023-07-08T10:10:02;100924.60;;;28.29;40.21
46682;BME280;34101;53.430;-2.224;2023-07-08T10:12:32;100928.66;;;28.49;40.41
46682;BME280;34101;53.430;-2.224;2023-07-08T10:15:05;100929.10;;;28.06;41.23
46682;BME280;34101;53.430;-2.224;2023-07-08T10:17:36;100934.53;;;28.18;40.44
46682;BME280;34101;53.430;-2.224;2023-07-08T10:20:10;100942.88;;;28.00;40.83
46682;BME280;34101;53.430;-2.224;2023-07-08T10:22:42;100945.82;;;27.82;40.92
46682;BME280;34101;53.430;-2.224;2023-07-08T10:25:26;100952.53;;;27.52;41.18
46682;BME280;34101;53.430;-2.224;2023-07-08T10:28:00;100943.86;;;27.50;41.49
46682;BME280;34101;53.430;-2.224;2023-07-08T10:30:34;100948.76;;;27.50;41.36
46682;BME280;34101;53.430;-2.224;2023-07-08T10:33:18;100959.14;;;27.50;41.36
46682;BME280;34101;53.430;-2.224;2023-07-08T10:36:05;100956.52;;;27.34;41.93
46682;BME280;34101;53.430;-2.224;2023-07-08T10:38:50;100948.47;;;27.25;42.34
46682;BME280;34101;53.430;-2.224;2023-07-08T10:41:28;100954.77;;;27.38;42.07
46682;BME280;34101;53.430;-2.224;2023-07-08T10:44:05;100969.91;;;27.35;42.47
46682;BME280;34101;53.430;-2.224;2023-07-08T10:46:44;100981.01;;;27.19;42.74
46682;BME280;34101;53.430;-2.224;2023-07-08T10:49:31;100983.18;;;27.21;42.74
46682;BME280;34101;53.430;-2.224;2023-07-08T10:52:13;100977.70;;;27.25;42.77
46682;BME280;34101;53.430;-2.224;2023-07-08T10:54:58;100984.32;;;27.19;42.64
46682;BME280;34101;53.430;-2.224;2023-07-08T10:57:51;100987.27;;;27.10;42.00
46682;BME280;34101;53.430;-2.224;2023-07-08T11:00:28;100988.45;;;27.08;41.68
46682;BME280;34101;53.430;-2.224;2023-07-08T11:03:17;100991.46;;;27.17;41.83
46682;BME280;34101;53.430;-2.224;2023-07-08T11:05:52;100990.54;;;27.13;42.35
46682;BME280;34101;53.430;-2.224;2023-07-08T11:08:27;100997.74;;;27.22;42.09
46682;BME280;34101;53.430;-2.224;2023-07-08T11:10:58;101005.21;;;27.14;42.30
46682;BME280;34101;53.430;-2.224;2023-07-08T11:13:29;101017.56;;;27.15;41.97
46682;BME280;34101;53.430;-2.224;2023-07-08T11:16:04;101016.00;;;26.91;42.10
46682;BME280;34101;53.430;-2.224;2023-07-08T11:18:41;101025.30;;;26.63;42.79
46682;BME280;34101;53.430;-2.224;2023-07-08T11:21:14;101028.03;;;26.47;45.38
46682;BME280;34101;53.430;-2.224;2023-07-08T11:23:45;101028.29;;;25.53;49.10
46682;BME280;34101;53.430;-2.224;2023-07-08T11:26:19;101025.39;;;24.82;52.99
46682;BME280;34101;53.430;-2.224;2023-07-08T11:28:49;101010.07;;;24.28;54.63
46682;BME280;34101;53.430;-2.224;2023-07-08T11:31:19;101037.24;;;24.00;55.89
46682;BME280;34101;53.430;-2.224;2023-07-08T11:33:47;101045.89;;;23.88;56.76
46682;BME280;34101;53.430;-2.224;2023-07-08T11:36:16;101046.92;;;23.72;57.52
46682;BME280;34101;53.430;-2.224;2023-07-08T11:38:49;101055.12;;;23.70;58.27
46682;BME280;34101;53.430;-2.224;2023-07-08T11:41:19;101057.93;;;23.59;59.02
46682;BME280;34101;53.430;-2.224;2023-07-08T11:43:49;101060.17;;;23.37;59.71
46682;BME280;34101;53.430;-2.224;2023-07-08T11:46:21;101058.39;;;23.03;60.59
46682;BME280;34101;53.430;-2.224;2023-07-08T11:48:52;101064.61;;;23.08;61.38
46682;BME280;34101;53.430;-2.224;2023-07-08T11:51:23;101073.32;;;23.11;62.05
46682;BME280;34101;53.430;-2.224;2023-07-08T11:53:59;101067.27;;;23.05;63.15
46682;BME280;34101;53.430;-2.224;2023-07-08T11:56:28;101066.22;;;22.90;64.14
46682;BME280;34101;53.430;-2.224;2023-07-08T11:59:04;101065.67;;;22.90;64.50
46682;BME280;34101;53.430;-2.224;2023-07-08T12:01:38;101059.63;;;22.93;65.14
46682;BME280;34101;53.430;-2.224;2023-07-08T12:04:26;101043.76;;;23.04;65.67
46682;BME280;34101;53.430;-2.224;2023-07-08T12:07:14;101025.39;;;23.09;65.44
46682;BME280;34101;53.430;-2.224;2023-07-08T12:09:47;101014.47;;;23.05;65.89
46682;BME280;34101;53.430;-2.224;2023-07-08T12:12:21;101011.64;;;23.13;66.95
46682;BME280;34101;53.430;-2.224;2023-07-08T12:14:50;101015.18;;;22.98;65.67
46682;BME280;34101;53.430;-2.224;2023-07-08T12:17:18;101012.80;;;22.84;65.94
46682;BME280;34101;53.430;-2.224;2023-07-08T12:19:47;101014.40;;;22.71;67.21
46682;BME280;34101;53.430;-2.224;2023-07-08T12:22:16;101015.62;;;22.65;68.44
46682;BME280;34101;53.430;-2.224;2023-07-08T12:24:43;101023.19;;;22.61;68.67
46682;BME280;34101;53.430;-2.224;2023-07-08T12:27:11;101041.95;;;22.58;68.84
46682;BME280;34101;53.430;-2.224;2023-07-08T12:29:39;101038.92;;;22.63;68.98
46682;BME280;34101;53.430;-2.224;2023-07-08T12:32:11;101022.43;;;22.59;68.96
46682;BME280;34101;53.430;-2.224;2023-07-08T12:34:39;101033.48;;;22.43;69.67
46682;BME280;34101;53.430;-2.224;2023-07-08T12:37:12;101026.66;;;22.50;70.10
46682;BME280;34101;53.430;-2.224;2023-07-08T12:39:39;101021.36;;;22.53;70.20
46682;BME280;34101;53.430;-2.224;2023-07-08T12:42:10;101015.04;;;22.41;69.84
46682;BME280;34101;53.430;-2.224;2023-07-08T12:44:39;101016.10;;;22.59;69.69
46682;BME280;34101;53.430;-2.224;2023-07-08T12:47:07;101020.33;;;22.82;69.59
46682;BME280;34101;53.430;-2.224;2023-07-08T12:49:34;101025.65;;;23.11;69.21
46682;BME280;34101;53.430;-2.224;2023-07-08T12:52:02;101026.83;;;23.43;67.74
46682;BME280;34101;53.430;-2.224;2023-07-08T12:54:30;101031.23;;;23.81;66.78
46682;BME280;34101;53.430;-2.224;2023-07-08T12:56:58;101028.11;;;24.11;64.85
46682;BME280;34101;53.430;-2.224;2023-07-08T12:59:26;101021.21;;;24.40;64.57
46682;BME280;34101;53.430;-2.224;2023-07-08T13:01:53;101020.55;;;24.63;63.63
46682;BME280;34101;53.430;-2.224;2023-07-08T13:04:21;101022.69;;;24.87;60.48
46682;BME280;34101;53.430;-2.224;2023-07-08T13:06:49;101022.88;;;25.04;60.54
46682;BME280;34101;53.430;-2.224;2023-07-08T13:09:32;101014.98;;;25.07;59.29
46682;BME280;34101;53.430;-2.224;2023-07-08T13:12:04;101002.05;;;25.27;58.24
46682;BME280;34101;53.430;-2.224;2023-07-08T13:14:33;101001.02;;;25.15;56.62
46682;BME280;34101;53.430;-2.224;2023-07-08T13:17:01;100995.16;;;25.18;56.55
46682;BME280;34101;53.430;-2.224;2023-07-08T13:19:28;100995.00;;;25.21;55.34
46682;BME280;34101;53.430;-2.224;2023-07-08T13:21:55;100987.03;;;25.14;54.97
46682;BME280;34101;53.430;-2.224;2023-07-08T13:24:23;100989.56;;;25.23;54.45
46682;BME280;34101;53.430;-2.224;2023-07-08T13:26:50;100974.15;;;25.36;54.10
46682;BME280;34101;53.430;-2.224;2023-07-08T13:29:19;100972.68;;;25.33;53.12
46682;BME280;34101;53.430;-2.224;2023-07-08T13:31:48;100973.35;;;25.35;52.70
46682;BME280;34101;53.430;-2.224;2023-07-08T13:34:18;100970.46;;;25.37;51.09
46682;BME280;34101;53.430;-2.224;2023-07-08T13:36:50;100981.40;;;25.38;50.92
46682;BME280;34101;53.430;-2.224;2023-07-08T13:39:24;100982.39;;;25.47;50.75
46682;BME280;34101;53.430;-2.224;2023-07-08T13:41:51;100978.31;;;25.44;50.48
46682;BME280;34101;53.430;-2.224;2023-07-08T13:44:19;100979.32;;;25.46;50.49
46682;BME280;34101;53.430;-2.224;2023-07-08T13:46:51;100975.20;;;25.54;50.08
46682;BME280;34101;53.430;-2.224;2023-07-08T13:49:23;100978.12;;;25.60;49.92
46682;BME280;34101;53.430;-2.224;2023-07-08T13:51:51;100970.75;;;25.75;49.57
46682;BME280;34101;53.430;-2.224;2023-07-08T13:54:21;100973.61;;;25.78;49.16
46682;BME280;34101;53.430;-2.224;2023-07-08T13:56:51;100976.32;;;25.86;48.96
46682;BME280;34101;53.430;-2.224;2023-07-08T13:59:21;100976.15;;;26.13;49.03
46682;BME280;34101;53.430;-2.224;2023-07-08T14:01:52;100980.13;;;26.36;48.79
46682;BME280;34101;53.430;-2.224;2023-07-08T14:04:21;100983.35;;;26.34;48.51
46682;BME280;34101;53.430;-2.224;2023-07-08T14:06:50;100970.01;;;26.10;48.29
46682;BME280;34101;53.430;-2.224;2023-07-08T14:09:19;100973.14;;;26.09;48.33
46682;BME280;34101;53.430;-2.224;2023-07-08T14:11:48;100979.31;;;26.08;48.27
46682;BME280;34101;53.430;-2.224;2023-07-08T14:14:16;100970.75;;;26.13;48.31
46682;BME280;34101;53.430;-2.224;2023-07-08T14:16:46;100978.80;;;26.13;48.41
46682;BME280;34101;53.430;-2.224;2023-07-08T14:19:19;100983.72;;;26.19;48.24
46682;BME280;34101;53.430;-2.224;2023-07-08T14:21:51;100994.24;;;26.31;48.85
46682;BME280;34101;53.430;-2.224;2023-07-08T14:24:20;101001.32;;;26.26;48.65
46682;BME280;34101;53.430;-2.224;2023-07-08T14:26:48;100998.81;;;26.05;49.10
46682;BME280;34101;53.430;-2.224;2023-07-08T14:29:16;100997.65;;;26.05;49.44
46682;BME280;34101;53.430;-2.224;2023-07-08T14:31:43;101003.23;;;25.76;49.94
46682;BME280;34101;53.430;-2.224;2023-07-08T14:34:15;101020.56;;;25.75;50.09
46682;BME280;34101;53.430;-2.224;2023-07-08T14:36:44;101024.58;;;25.55;50.40
46682;BME280;34101;53.430;-2.224;2023-07-08T14:39:13;101032.00;;;25.47;50.95
46682;BME280;34101;53.430;-2.224;2023-07-08T14:41:41;101043.18;;;25.35;50.96
46682;BME280;34101;53.430;-2.224;2023-07-08T14:44:20;101042.02;;;25.14;51.80
46682;BME280;34101;53.430;-2.224;2023-07-08T14:46:48;101040.96;;;25.03;51.84
46682;BME280;34101;53.430;-2.224;2023-07-08T14:49:16;101048.10;;;25.05;51.89
46682;BME280;34101;53.430;-2.224;2023-07-08T14:51:44;101053.57;;;24.92;52.15
46682;BME280;34101;53.430;-2.224;2023-07-08T14:54:12;101052.69;;;24.92;52.12
46682;BME280;34101;53.430;-2.224;2023-07-08T14:56:40;101055.48;;;24.87;52.15
46682;BME280;34101;53.430;-2.224;2023-07-08T14:59:13;101053.50;;;24.61;52.53
46682;BME280;34101;53.430;-2.224;2023-07-08T15:01:42;101048.33;;;24.51;52.50
46682;BME280;34101;53.430;-2.224;2023-07-08T15:04:12;101050.53;;;24.44;53.01
46682;BME280;34101;53.430;-2.224;2023-07-08T15:06:41;101051.03;;;24.32;53.46
46682;BME280;34101;53.430;-2.224;2023-07-08T15:09:08;101066.11;;;24.33;53.52
46682;BME280;34101;53.430;-2.224;2023-07-08T15:11:36;101056.93;;;24.32;53.70
46682;BME280;34101;53.430;-2.224;2023-07-08T15:14:08;101062.30;;;24.27;53.88
46682;BME280;34101;53.430;-2.224;2023-07-08T15:16:36;101067.60;;;24.16;54.18
46682;BME280;34101;53.430;-2.224;2023-07-08T15:19:08;101079.43;;;24.19;54.21
46682;BME280;34101;53.430;-2.224;2023-07-08T15:21:37;101082.95;;;24.14;54.65
46682;BME280;34101;53.430;-2.224;2023-07-08T15:24:08;101087.42;;;24.19;54.62
46682;BME280;34101;53.430;-2.224;2023-07-08T15:26:36;101093.56;;;24.20;54.95
46682;BME280;34101;53.430;-2.224;2023-07-08T15:29:06;101096.00;;;23.74;58.00
46682;BME280;34101;53.430;-2.224;2023-07-08T15:31:39;101092.60;;;23.27;60.34
46682;BME280;34101;53.430;-2.224;2023-07-08T15:34:08;101085.33;;;22.95;62.34
46682;BME280;34101;53.430;-2.224;2023-07-08T15:36:39;101087.52;;;22.75;63.51
46682;BME280;34101;53.430;-2.224;2023-07-08T15:39:06;101080.37;;;22.65;64.76
46682;BME280;34101;53.430;-2.224;2023-07-08T15:41:34;101085.09;;;22.62;65.06
46682;BME280;34101;53.430;-2.224;2023-07-08T15:44:09;101082.94;;;22.57;65.83
46682;BME280;34101;53.430;-2.224;2023-07-08T15:46:40;101080.09;;;22.56;66.49
46682;BME280;34101;53.430;-2.224;2023-07-08T15:49:13;101082.21;;;22.59;67.58
46682;BME280;34101;53.430;-2.224;2023-07-08T15:51:42;101096.13;;;22.49;68.99
46682;BME280;34101;53.430;-2.224;2023-07-08T15:54:11;101104.66;;;21.76;66.90
46682;BME280;34101;53.430;-2.224;2023-07-08T15:56:39;101108.48;;;21.79;67.30
46682;BME280;34101;53.430;-2.224;2023-07-08T15:59:11;101108.71;;;21.84;66.35
46682;BME280;34101;53.430;-2.224;2023-07-08T16:01:40;101107.94;;;21.92;67.51
46682;BME280;34101;53.430;-2.224;2023-07-08T16:04:18;101112.10;;;21.86;66.93
46682;BME280;34101;53.430;-2.224;2023-07-08T16:06:47;101108.24;;;21.96;66.25
46682;BME280;34101;53.430;-2.224;2023-07-08T16:09:14;101110.88;;;22.06;66.09
46682;BME280;34101;53.430;-2.224;2023-07-08T16:11:42;101110.54;;;22.20;66.34
46682;BME280;34101;53.430;-2.224;2023-07-08T16:14:12;101103.19;;;22.31;65.37
46682;BME280;34101;53.430;-2.224;2023-07-08T16:16:40;101100.31;;;22.48;65.66
46682;BME280;34101;53.430;-2.224;2023-07-08T16:19:09;101095.92;;;22.61;65.81
46682;BME280;34101;53.430;-2.224;2023-07-08T16:21:36;101088.72;;;22.72;64.87
46682;BME280;34101;53.430;-2.224;2023-07-08T16:24:05;101086.67;;;22.81;65.00
46682;BME280;34101;53.430;-2.224;2023-07-08T16:26:32;101089.83;;;22.81;64.41
46682;BME280;34101;53.430;-2.224;2023-07-08T16:29:01;101087.81;;;22.86;64.84
46682;BME280;34101;53.430;-2.224;2023-07-08T16:31:29;101089.18;;;23.03;63.67
46682;BME280;34101;53.430;-2.224;2023-07-08T16:33:56;101092.07;;;23.16;63.12
46682;BME280;34101;53.430;-2.224;2023-07-08T16:36:26;101094.51;;;23.09;63.03
46682;BME280;34101;53.430;-2.224;2023-07-08T16:38:54;101095.37;;;23.10;63.13
46682;BME280;34101;53.430;-2.224;2023-07-08T16:41:23;101095.70;;;23.21;62.61
46682;BME280;34101;53.430;-2.224;2023-07-08T16:43:52;101095.12;;;23.29;61.67
46682;BME280;34101;53.430;-2.224;2023-07-08T16:46:19;101101.80;;;23.40;61.68
46682;BME280;34101;53.430;-2.224;2023-07-08T16:48:47;101100.80;;;23.53;61.47
46682;BME280;34101;53.430;-2.224;2023-07-08T16:51:16;101089.59;;;23.62;60.07
46682;BME280;34101;53.430;-2.224;2023-07-08T16:53:44;101076.03;;;23.78;60.71
46682;BME280;34101;53.430;-2.224;2023-07-08T16:56:15;101064.96;;;23.82;59.28
46682;BME280;34101;53.430;-2.224;2023-07-08T16:58:44;101062.70;;;23.95;59.71
46682;BME280;34101;53.430;-2.224;2023-07-08T17:01:14;101060.18;;;24.18;59.39
46682;BME280;34101;53.430;-2.224;2023-07-08T17:03:45;101064.50;;;24.22;58.76
46682;BME280;34101;53.430;-2.224;2023-07-08T17:06:13;101073.10;;;24.33;58.34
46682;BME280;34101;53.430;-2.224;2023-07-08T17:08:40;101066.76;;;24.39;57.93
46682;BME280;34101;53.430;-2.224;2023-07-08T17:11:07;101052.86;;;24.46;58.48
46682;BME280;34101;53.430;-2.224;2023-07-08T17:13:35;101049.95;;;24.41;57.49
46682;BME280;34101;53.430;-2.224;2023-07-08T17:16:03;101054.73;;;24.37;57.52
46682;BME280;34101;53.430;-2.224;2023-07-08T17:18:31;101059.27;;;24.40;57.33
46682;BME280;34101;53.430;-2.224;2023-07-08T17:21:00;101064.76;;;24.44;57.98
46682;BME280;34101;53.430;-2.224;2023-07-08T17:23:27;101059.37;;;24.41;58.04
46682;BME280;34101;53.430;-2.224;2023-07-08T17:25:55;101053.24;;;24.30;58.60
46682;BME280;34101;53.430;-2.224;2023-07-08T17:28:22;101047.65;;;24.19;59.93
46682;BME280;34101;53.430;-2.224;2023-07-08T17:30:52;101048.64;;;23.94;60.07
46682;BME280;34101;53.430;-2.224;2023-07-08T17:33:21;101055.62;;;23.55;64.49
46682;BME280;34101;53.430;-2.224;2023-07-08T17:35:49;101069.54;;;23.08;67.62
46682;BME280;34101;53.430;-2.224;2023-07-08T17:38:21;101054.38;;;22.78;70.93
46682;BME280;34101;53.430;-2.224;2023-07-08T17:40:48;101047.72;;;22.58;71.40
46682;BME280;34101;53.430;-2.224;2023-07-08T17:43:16;101046.43;;;22.51;71.97
46682;BME280;34101;53.430;-2.224;2023-07-08T17:45:44;101049.45;;;22.41;72.34
46682;BME280;34101;53.430;-2.224;2023-07-08T17:48:13;101045.02;;;22.29;73.15
46682;BME280;34101;53.430;-2.224;2023-07-08T17:50:40;101040.74;;;22.24;73.79
46682;BME280;34101;53.430;-2.224;2023-07-08T17:53:09;101036.19;;;22.20;73.78
46682;BME280;34101;53.430;-2.224;2023-07-08T17:55:37;101028.94;;;22.06;73.72
46682;BME280;34101;53.430;-2.224;2023-07-08T17:58:05;101023.77;;;22.05;74.63
46682;BME280;34101;53.430;-2.224;2023-07-08T18:00:35;101016.46;;;22.06;74.63
46682;BME280;34101;53.430;-2.224;2023-07-08T18:03:02;101011.69;;;22.12;74.58
46682;BME280;34101;53.430;-2.224;2023-07-08T18:05:29;101010.96;;;22.10;74.58
46682;BME280;34101;53.430;-2.224;2023-07-08T18:07:57;101023.69;;;22.11;74.72
46682;BME280;34101;53.430;-2.224;2023-07-08T18:10:27;101056.37;;;22.12;75.02
46682;BME280;34101;53.430;-2.224;2023-07-08T18:12:55;101078.63;;;21.81;75.71
46682;BME280;34101;53.430;-2.224;2023-07-08T18:15:25;101099.79;;;21.43;76.96
46682;BME280;34101;53.430;-2.224;2023-07-08T18:17:55;101127.46;;;20.66;79.68
46682;BME280;34101;53.430;-2.224;2023-07-08T18:20:29;101122.42;;;20.06;81.81
46682;BME280;34101;53.430;-2.224;2023-07-08T18:22:57;101069.66;;;20.58;80.34
46682;BME280;34101;53.430;-2.224;2023-07-08T18:25:25;101042.17;;;20.72;80.43
46682;BME280;34101;53.430;-2.224;2023-07-08T18:27:53;101047.78;;;20.83;80.36
46682;BME280;34101;53.430;-2.224;2023-07-08T18:30:21;101060.78;;;20.96;80.43
46682;BME280;34101;53.430;-2.224;2023-07-08T18:32:50;101078.38;;;20.89;79.51
46682;BME280;34101;53.430;-2.224;2023-07-08T18:35:20;101070.80;;;20.88;79.60
46682;BME280;34101;53.430;-2.224;2023-07-08T18:37:49;101081.90;;;20.96;79.53
46682;BME280;34101;53.430;-2.224;2023-07-08T18:40:19;101088.74;;;21.03;79.49
46682;BME280;34101;53.430;-2.224;2023-07-08T18:42:52;101087.53;;;21.09;79.78
46682;BME280;34101;53.430;-2.224;2023-07-08T18:45:22;101101.06;;;21.12;79.06
46682;BME280;34101;53.430;-2.224;2023-07-08T18:47:49;101104.20;;;21.20;79.42
46682;BME280;34101;53.430;-2.224;2023-07-08T18:50:17;101100.53;;;21.27;79.25
46682;BME280;34101;53.430;-2.224;2023-07-08T18:52:44;101086.56;;;21.27;79.21
46682;BME280;34101;53.430;-2.224;2023-07-08T18:55:15;101082.25;;;21.32;79.38
46682;BME280;34101;53.430;-2.224;2023-07-08T18:57:43;101078.75;;;21.35;79.51
46682;BME280;34101;53.430;-2.224;2023-07-08T19:00:13;101070.92;;;21.43;79.27
46682;BME280;34101;53.430;-2.224;2023-07-08T19:02:47;101083.16;;;21.43;79.36
46682;BME280;34101;53.430;-2.224;2023-07-08T19:05:16;101081.39;;;21.41;79.29
46682;BME280;34101;53.430;-2.224;2023-07-08T19:07:44;101078.93;;;21.39;79.49
46682;BME280;34101;53.430;-2.224;2023-07-08T19:10:13;101084.98;;;21.34;79.79
46682;BME280;34101;53.430;-2.224;2023-07-08T19:12:41;101101.63;;;21.23;80.17
46682;BME280;34101;53.430;-2.224;2023-07-08T19:15:17;101142.25;;;21.10;80.24
46682;BME280;34101;53.430;-2.224;2023-07-08T19:17:46;101111.29;;;20.94;82.64
46682;BME280;34101;53.430;-2.224;2023-07-08T19:20:13;101114.40;;;20.84;83.62
46682;BME280;34101;53.430;-2.224;2023-07-08T19:22:40;101107.37;;;20.90;84.66
46682;BME280;34101;53.430;-2.224;2023-07-08T19:25:15;101123.50;;;20.92;84.61
46682;BME280;34101;53.430;-2.224;2023-07-08T19:27:43;101131.69;;;20.85;84.63
46682;BME280;34101;53.430;-2.224;2023-07-08T19:30:12;101128.93;;;20.83;84.61
46682;BME280;34101;53.430;-2.224;2023-07-08T19:32:42;101104.29;;;20.79;84.71
46682;BME280;34101;53.430;-2.224;2023-07-08T19:35:13;101086.93;;;20.86;85.11
46682;BME280;34101;53.430;-2.224;2023-07-08T19:37:40;101099.71;;;20.95;85.13
46682;BME280;34101;53.430;-2.224;2023-07-08T19:40:11;101100.82;;;21.02;85.20
46682;BME280;34101;53.430;-2.224;2023-07-08T19:42:39;101097.87;;;21.14;85.05
46682;BME280;34101;53.430;-2.224;2023-07-08T19:45:16;101095.47;;;21.17;84.77
46682;BME280;34101;53.430;-2.224;2023-07-08T19:47:44;101100.93;;;21.16;84.38
46682;BME280;34101;53.430;-2.224;2023-07-08T19:50:12;101097.64;;;21.17;84.68
46682;BME280;34101;53.430;-2.224;2023-07-08T19:52:39;101104.22;;;21.21;84.48
46682;BME280;34101;53.430;-2.224;2023-07-08T19:55:07;101100.69;;;21.05;83.94
46682;BME280;34101;53.430;-2.224;2023-07-08T19:57:44;101095.08;;;21.04;84.49
46682;BME280;34101;53.430;-2.224;2023-07-08T20:00:20;101087.02;;;21.10;84.59
46682;BME280;34101;53.430;-2.224;2023-07-08T20:02:49;101086.33;;;21.14;84.66
46682;BME280;34101;53.430;-2.224;2023-07-08T20:05:18;101092.69;;;21.20;84.27
46682;BME280;34101;53.430;-2.224;2023-07-08T20:07:45;101118.51;;;20.99;82.96
46682;BME280;34101;53.430;-2.224;2023-07-08T20:10:13;101116.66;;;20.86;82.92
46682;BME280;34101;53.430;-2.224;2023-07-08T20:12:41;101107.16;;;20.86;84.00
46682;BME280;34101;53.430;-2.224;2023-07-08T20:15:18;101104.70;;;21.04;83.72
46682;BME280;34101;53.430;-2.224;2023-07-08T20:17:45;101112.43;;;21.14;83.89
46682;BME280;34101;53.430;-2.224;2023-07-08T20:20:19;101120.63;;;21.23;83.76
46682;BME280;34101;53.430;-2.224;2023-07-08T20:22:48;101129.38;;;21.28;82.90
46682;BME280;34101;53.430;-2.224;2023-07-08T20:25:17;101127.75;;;21.15;82.19
46682;BME280;34101;53.430;-2.224;2023-07-08T20:27:45;101131.17;;;21.10;82.25
46682;BME280;34101;53.430;-2.224;2023-07-08T20:30:15;101131.82;;;21.08;82.47
46682;BME280;34101;53.430;-2.224;2023-07-08T20:32:43;101125.19;;;21.14;82.47
46682;BME280;34101;53.430;-2.224;2023-07-08T20:35:10;101128.61;;;21.16;82.20
46682;BME280;34101;53.430;-2.224;2023-07-08T20:37:37;101138.14;;;21.18;81.70
46682;BME280;34101;53.430;-2.224;2023-07-08T20:40:13;101140.81;;;21.09;81.81
46682;BME280;34101;53.430;-2.224;2023-07-08T20:42:41;101134.65;;;21.11;81.86
46682;BME280;34101;53.430;-2.224;2023-07-08T20:45:09;101129.63;;;21.12;82.15
46682;BME280;34101;53.430;-2.224;2023-07-08T20:47:36;101122.47;;;21.05;82.30
46682;BME280;34101;53.430;-2.224;2023-07-08T20:50:12;101128.83;;;21.00;81.28
46682;BME280;34101;53.430;-2.224;2023-07-08T20:52:40;101125.44;;;21.05;82.47
46682;BME280;34101;53.430;-2.224;2023-07-08T20:55:08;101118.44;;;21.11;82.67
46682;BME280;34101;53.430;-2.224;2023-07-08T20:57:36;101113.76;;;21.14;82.72
46682;BME280;34101;53.430;-2.224;2023-07-08T21:00:04;101120.12;;;21.13;83.00
46682;BME280;34101;53.430;-2.224;2023-07-08T21:02:32;101115.11;;;21.13;82.74
46682;BME280;34101;53.430;-2.224;2023-07-08T21:04:59;101122.10;;;21.00;82.23
46682;BME280;34101;53.430;-2.224;2023-07-08T21:07:27;101116.48;;;20.92;82.02
46682;BME280;34101;53.430;-2.224;2023-07-08T21:09:54;101107.40;;;20.90;82.32
46682;BME280;34101;53.430;-2.224;2023-07-08T21:12:21;101103.18;;;20.88;82.64
46682;BME280;34101;53.430;-2.224;2023-07-08T21:14:49;101110.70;;;20.89;82.91
46682;BME280;34101;53.430;-2.224;2023-07-08T21:17:17;101108.97;;;20.94;82.92
46682;BME280;34101;53.430;-2.224;2023-07-08T21:19:45;101105.62;;;20.88;82.54
46682;BME280;34101;53.430;-2.224;2023-07-08T21:22:13;101106.07;;;20.89;82.44
46682;BME280;34101;53.430;-2.224;2023-07-08T21:24:40;101110.81;;;20.85;82.33
46682;BME280;34101;53.430;-2.224;2023-07-08T21:27:19;101109.20;;;20.85;82.10
46682;BME280;34101;53.430;-2.224;2023-07-08T21:29:46;101115.89;;;20.87;81.91
46682;BME280;34101;53.430;-2.224;2023-07-08T21:32:13;101121.47;;;20.71;81.58
46682;BME280;34101;53.430;-2.224;2023-07-08T21:34:41;101129.31;;;20.76;81.45
46682;BME280;34101;53.430;-2.224;2023-07-08T21:37:10;101118.40;;;20.78;81.37